Open Full Screen Window  High Contrast Mode
Wind Gusting 00 knots
04
July 06, 2015 9:29 AM EDT
Weather Information
Wind Direction
  320 °
Wind Speed
  04 kt (5 mph)
Wind Gust
  00 kt (0 mph)
Altimeter
30.12 in
Visibility
10 SM
Temperature
22° C
72° F
Dewpoint
17° C
63° F
Humidity
73%
1hr Rain Fall
00.00 in.
24hr Rain Fall
00.00 in.
Sky Condition
Clear
VFR

METAR KI69 061329Z AUTO 32004KT 10SM CLR 22/17 A3012 RMK AO1

*Background is not an actual portrayal of the airport.